createdAt,value
2022-12-11T00:00:24.371Z,35.30
2022-12-11T00:02:50.835Z,40.45
2022-12-11T00:05:17.391Z,34.30
2022-12-11T00:07:43.887Z,32.97
2022-12-11T00:10:10.378Z,36.33
2022-12-11T00:12:36.768Z,32.70
2022-12-11T00:15:03.388Z,34.17
2022-12-11T00:17:30.891Z,34.53
2022-12-11T00:19:57.338Z,35.60
2022-12-11T00:22:23.783Z,33.50
2022-12-11T00:24:50.586Z,35.17
2022-12-11T00:27:16.959Z,36.25
2022-12-11T00:29:43.421Z,34.55
2022-12-11T00:32:09.843Z,37.25
2022-12-11T00:34:36.277Z,40.28
2022-12-11T00:37:02.776Z,34.47
2022-12-11T00:39:29.273Z,39.97
2022-12-11T00:41:55.687Z,38.70
2022-12-11T00:44:22.099Z,37.90
2022-12-11T00:46:48.533Z,38.40
2022-12-11T00:49:14.958Z,37.50
2022-12-11T00:51:41.438Z,39.65
2022-12-11T00:54:07.862Z,38.20
2022-12-11T00:56:34.343Z,36.97
2022-12-11T00:59:00.839Z,35.20
2022-12-11T01:01:27.265Z,39.92
2022-12-11T01:03:54.124Z,36.63
2022-12-11T01:06:27.345Z,36.45
2022-12-11T01:09:14.482Z,35.45
2022-12-11T01:11:42.791Z,37.45
2022-12-11T01:14:12.896Z,41.08
2022-12-11T01:16:39.369Z,36.70
2022-12-11T01:19:05.805Z,42.67
2022-12-11T01:21:32.253Z,40.45
2022-12-11T01:23:58.718Z,33.65
2022-12-11T01:26:25.325Z,39.35
2022-12-11T01:28:52.372Z,38.75
2022-12-11T01:31:20.295Z,41.10
2022-12-11T01:33:46.861Z,36.22
2022-12-11T01:36:18.019Z,40.63
2022-12-11T01:38:46.253Z,38.53
2022-12-11T01:41:13.283Z,37.42
2022-12-11T01:47:26.892Z,37.92
2022-12-11T01:49:53.296Z,42.78
2022-12-11T01:52:21.945Z,39.55
2022-12-11T01:54:48.744Z,40.13
2022-12-11T01:57:16.008Z,42.53
2022-12-11T01:59:46.345Z,40.83
2022-12-11T02:02:19.149Z,41.53
2022-12-11T02:04:46.278Z,40.17
2022-12-11T02:07:12.671Z,42.60
2022-12-11T02:09:41.390Z,42.38
2022-12-11T02:12:31.686Z,43.05
2022-12-11T02:15:19.800Z,39.25
2022-12-11T02:18:05.005Z,54.70
2022-12-11T02:20:34.083Z,56.95
2022-12-11T02:23:12.684Z,47.58
2022-12-11T02:26:18.119Z,45.58
2022-12-11T02:28:57.363Z,46.88
2022-12-11T02:31:45.830Z,45.47
2022-12-11T02:34:16.178Z,45.97
2022-12-11T02:36:46.816Z,42.38
2022-12-11T02:39:16.071Z,41.53
2022-12-11T02:41:47.036Z,41.15
2022-12-11T02:44:16.895Z,41.17
2022-12-11T02:46:44.729Z,41.10
2022-12-11T02:49:13.402Z,42.97
2022-12-11T02:51:41.900Z,39.80
2022-12-11T02:54:13.961Z,42.53
2022-12-11T02:56:47.975Z,40.78
2022-12-11T02:59:19.057Z,40.50
2022-12-11T03:01:47.017Z,40.70
2022-12-11T03:04:13.847Z,41.10
2022-12-11T03:06:46.598Z,42.45
2022-12-11T03:09:13.035Z,41.53
2022-12-11T03:11:39.442Z,44.05
2022-12-11T03:14:07.690Z,39.15
2022-12-11T03:16:37.172Z,41.53
2022-12-11T03:19:29.944Z,36.70
2022-12-11T03:22:36.965Z,39.40
2022-12-11T03:25:06.824Z,45.45
2022-12-11T03:27:41.338Z,39.33
2022-12-11T03:30:13.016Z,42.20
2022-12-11T03:33:08.439Z,40.20
2022-12-11T03:35:47.793Z,41.67
2022-12-11T03:38:28.898Z,45.08
2022-12-11T03:41:00.804Z,41.15
2022-12-11T03:43:31.943Z,45.45
2022-12-11T03:45:59.705Z,40.75
2022-12-11T03:48:33.015Z,40.38
2022-12-11T03:51:03.778Z,41.75
2022-12-11T03:53:31.224Z,41.30
2022-12-11T03:56:00.102Z,43.42
2022-12-11T03:58:26.592Z,41.08
2022-12-11T04:00:53.016Z,40.90
2022-12-11T04:03:19.523Z,42.67
2022-12-11T04:05:52.704Z,42.00
2022-12-11T04:08:23.089Z,43.15
2022-12-11T04:11:13.351Z,42.28
2022-12-11T04:13:41.453Z,44.33
2022-12-11T04:16:08.796Z,45.00
2022-12-11T04:18:54.170Z,45.10
2022-12-11T04:21:39.801Z,42.40
2022-12-11T04:24:17.684Z,44.63
2022-12-11T04:26:46.019Z,42.13
2022-12-11T04:29:13.259Z,46.10
2022-12-11T04:31:39.994Z,40.15
2022-12-11T04:34:06.464Z,44.97
2022-12-11T04:36:32.983Z,40.65
2022-12-11T04:38:59.415Z,42.70
2022-12-11T04:41:25.956Z,45.75
2022-12-11T04:43:52.469Z,42.28
2022-12-11T04:46:21.571Z,40.35
2022-12-11T04:48:53.830Z,45.83
2022-12-11T04:51:24.448Z,41.30
2022-12-11T04:53:50.861Z,40.65
2022-12-11T04:56:17.468Z,38.42
2022-12-11T04:58:44.680Z,43.33
2022-12-11T05:01:15.113Z,43.33
2022-12-11T05:03:42.439Z,40.70
2022-12-11T05:06:10.456Z,42.38
2022-12-11T05:08:40.167Z,41.45
2022-12-11T05:11:12.350Z,41.10
2022-12-11T05:13:39.666Z,39.63
2022-12-11T05:16:08.003Z,37.63
2022-12-11T05:18:34.836Z,35.55
2022-12-11T05:21:03.943Z,41.70
2022-12-11T05:23:37.515Z,37.35
2022-12-11T05:26:07.963Z,39.28
2022-12-11T05:28:36.760Z,38.40
2022-12-11T05:31:06.487Z,35.53
2022-12-11T05:33:34.233Z,34.63
2022-12-11T05:36:01.188Z,34.60
2022-12-11T05:38:27.603Z,33.67
2022-12-11T05:41:05.855Z,35.78
2022-12-11T05:43:35.068Z,35.42
2022-12-11T05:46:09.214Z,34.95
2022-12-11T05:48:38.281Z,37.13
2022-12-11T05:51:06.402Z,31.85
2022-12-11T05:53:33.413Z,37.63
2022-12-11T05:56:27.108Z,34.53
2022-12-11T05:58:54.256Z,31.65
2022-12-11T06:01:27.600Z,34.80
2022-12-11T06:03:55.330Z,33.10
2022-12-11T06:06:22.000Z,34.15
2022-12-11T06:08:53.240Z,36.50
2022-12-11T06:11:23.985Z,34.63
2022-12-11T06:13:52.051Z,36.50
2022-12-11T06:16:22.191Z,31.20
2022-12-11T06:18:48.971Z,36.03
2022-12-11T06:21:16.604Z,31.23
2022-12-11T06:23:43.979Z,32.45
2022-12-11T06:26:11.274Z,32.63
2022-12-11T06:28:45.065Z,31.00
2022-12-11T06:31:12.008Z,32.25
2022-12-11T06:33:38.891Z,31.35
2022-12-11T06:36:11.382Z,31.88
2022-12-11T06:38:38.542Z,30.83
2022-12-11T06:41:06.948Z,30.20
2022-12-11T06:43:38.759Z,29.38
2022-12-11T06:46:06.792Z,32.60
2022-12-11T06:48:34.100Z,32.67
2022-12-11T06:51:04.601Z,30.80
2022-12-11T06:53:31.008Z,27.95
2022-12-11T06:56:02.582Z,25.52
2022-12-11T06:58:28.996Z,31.50
2022-12-11T07:01:15.978Z,26.27
2022-12-11T07:03:42.497Z,32.20
2022-12-11T07:06:09.144Z,26.25
2022-12-11T07:08:35.643Z,27.15
2022-12-11T07:11:04.357Z,27.63
2022-12-11T07:13:30.843Z,24.70
2022-12-11T07:15:59.375Z,26.73
2022-12-11T07:18:26.517Z,26.30
2022-12-11T07:20:52.930Z,30.02
2022-12-11T07:23:19.626Z,28.65
2022-12-11T07:25:49.374Z,27.00
2022-12-11T07:28:16.903Z,26.45
2022-12-11T07:30:43.577Z,27.20
2022-12-11T07:33:09.998Z,25.13
2022-12-11T07:35:36.747Z,24.95
2022-12-11T07:38:03.449Z,23.95
2022-12-11T07:40:29.892Z,24.92
2022-12-11T07:42:56.333Z,20.75
2022-12-11T07:45:31.944Z,22.10
2022-12-11T07:47:59.015Z,19.98
2022-12-11T07:50:25.763Z,19.45
2022-12-11T07:52:52.574Z,19.17
2022-12-11T07:55:19.150Z,26.10
2022-12-11T07:57:45.644Z,25.42
2022-12-11T08:00:12.410Z,23.92
2022-12-11T08:02:43.975Z,23.00
2022-12-11T08:05:10.864Z,23.02
2022-12-11T08:07:37.456Z,21.88
2022-12-11T08:10:04.817Z,21.08
2022-12-11T08:12:37.326Z,22.05
2022-12-11T08:15:04.343Z,20.23
2022-12-11T08:17:44.124Z,23.67
2022-12-11T08:20:15.144Z,21.98
2022-12-11T08:22:58.888Z,22.33
2022-12-11T08:25:26.712Z,24.52
2022-12-11T08:27:57.159Z,49.90
2022-12-11T08:30:23.837Z,33.83
2022-12-11T08:32:52.431Z,35.58
2022-12-11T08:35:21.032Z,33.35
2022-12-11T08:37:48.462Z,34.25
2022-12-11T08:40:19.027Z,29.13
2022-12-11T08:42:45.523Z,26.30
2022-12-11T08:45:12.236Z,25.00
2022-12-11T08:47:38.830Z,27.98
2022-12-11T08:50:05.788Z,25.45
2022-12-11T08:52:34.665Z,26.15
2022-12-11T08:55:01.058Z,32.88
2022-12-11T08:57:30.538Z,35.50
2022-12-11T08:59:56.943Z,31.65
2022-12-11T09:02:23.413Z,30.52
2022-12-11T09:04:50.511Z,33.15
2022-12-11T09:07:17.024Z,28.60
2022-12-11T09:09:43.442Z,29.55
2022-12-11T09:12:09.919Z,29.10
2022-12-11T09:14:36.459Z,26.42
2022-12-11T09:17:04.075Z,26.10
2022-12-11T09:19:32.397Z,30.35
2022-12-11T09:21:59.184Z,23.55
2022-12-11T09:24:25.659Z,24.77
2022-12-11T09:26:52.079Z,20.30
2022-12-11T09:29:18.498Z,24.50
2022-12-11T09:31:57.860Z,22.63
2022-12-11T09:34:30.755Z,26.52
2022-12-11T09:36:58.730Z,30.52
2022-12-11T09:39:41.671Z,28.88
2022-12-11T09:42:49.035Z,24.80
2022-12-11T09:48:02.418Z,20.45
2022-12-11T09:50:41.681Z,20.52
2022-12-11T09:53:18.771Z,20.33
2022-12-11T09:55:54.019Z,22.95
2022-12-11T09:58:32.711Z,23.40
2022-12-11T10:01:35.181Z,22.35
2022-12-11T10:04:37.691Z,21.25
2022-12-11T10:07:44.938Z,20.50
2022-12-11T10:10:41.429Z,20.65
2022-12-11T10:13:37.333Z,20.67
2022-12-11T10:16:46.550Z,19.90
2022-12-11T10:19:32.807Z,17.80
2022-12-11T10:22:24.319Z,17.70
2022-12-11T10:25:10.557Z,14.75
2022-12-11T10:27:41.041Z,16.85
2022-12-11T10:30:14.679Z,16.98
2022-12-11T10:32:50.284Z,19.33
2022-12-11T10:35:35.568Z,16.08
2022-12-11T10:38:15.686Z,18.00
2022-12-11T10:40:46.100Z,17.77
2022-12-11T10:43:12.984Z,17.90
2022-12-11T10:45:39.754Z,17.92
2022-12-11T10:48:22.149Z,16.52
2022-12-11T10:51:02.448Z,17.60
2022-12-11T10:53:30.233Z,15.25
2022-12-11T10:56:02.536Z,13.23
2022-12-11T10:58:34.107Z,14.23
2022-12-11T11:01:06.282Z,13.13
2022-12-11T11:04:17.628Z,13.50
2022-12-11T11:06:44.244Z,15.70
2022-12-11T11:09:39.711Z,20.83
2022-12-11T11:12:48.837Z,18.20
2022-12-11T11:15:40.033Z,14.23
2022-12-11T11:18:26.485Z,19.98
2022-12-11T11:20:54.170Z,18.50
2022-12-11T11:23:21.932Z,18.40
2022-12-11T11:25:59.797Z,20.45
2022-12-11T11:29:03.030Z,18.70
2022-12-11T11:31:35.828Z,19.48
2022-12-11T11:34:21.071Z,19.02
2022-12-11T11:36:57.297Z,18.45
2022-12-11T11:39:37.440Z,18.55
2022-12-11T11:42:03.889Z,18.42
2022-12-11T11:45:16.244Z,23.25
2022-12-11T11:48:03.091Z,21.02
2022-12-11T11:50:35.675Z,19.98
2022-12-11T11:53:14.259Z,18.58
2022-12-11T11:56:02.327Z,16.90
2022-12-11T11:58:44.852Z,15.73
2022-12-11T12:01:26.450Z,15.35
2022-12-11T12:04:13.487Z,16.60
2022-12-11T12:06:57.501Z,17.95
2022-12-11T12:09:52.551Z,14.75
2022-12-11T12:13:00.919Z,20.05
2022-12-11T12:15:43.993Z,18.02
2022-12-11T12:18:43.488Z,19.15
2022-12-11T12:21:34.158Z,18.38
2022-12-11T12:24:36.724Z,17.77
2022-12-11T12:27:51.517Z,17.63
2022-12-11T12:30:22.352Z,21.15
2022-12-11T12:33:25.902Z,20.10
2022-12-11T12:36:11.720Z,20.20
2022-12-11T12:39:02.026Z,17.85
2022-12-11T12:42:07.933Z,21.33
2022-12-11T12:44:57.500Z,19.52
2022-12-11T12:47:36.920Z,20.50
2022-12-11T12:50:19.676Z,21.63
2022-12-11T12:52:54.097Z,20.85
2022-12-11T12:55:36.305Z,20.33
2022-12-11T12:58:07.360Z,21.00
2022-12-11T13:00:44.423Z,22.48
2022-12-11T13:03:36.280Z,19.88
2022-12-11T13:06:09.428Z,23.13
2022-12-11T13:08:46.786Z,23.35
2022-12-11T13:11:30.272Z,21.30
2022-12-11T13:14:16.049Z,24.90
2022-12-11T13:16:45.869Z,19.02
2022-12-11T13:19:27.628Z,22.95
2022-12-11T13:22:06.197Z,25.52
2022-12-11T13:25:01.450Z,26.48
2022-12-11T13:27:43.462Z,22.48
2022-12-11T13:30:16.399Z,27.10
2022-12-11T13:33:19.123Z,24.63
2022-12-11T13:36:24.897Z,27.15
2022-12-11T13:39:30.350Z,25.20
2022-12-11T13:42:01.094Z,24.38
2022-12-11T13:44:39.456Z,29.40
2022-12-11T13:47:13.997Z,30.88
2022-12-11T13:49:44.720Z,28.80
2022-12-11T13:52:31.039Z,30.23
2022-12-11T13:54:59.528Z,27.98
2022-12-11T13:57:30.378Z,27.58
2022-12-11T13:59:59.394Z,23.80
2022-12-11T14:02:34.128Z,26.88
2022-12-11T14:05:12.895Z,25.88
2022-12-11T14:08:11.517Z,23.13
2022-12-11T14:10:40.118Z,23.27
2022-12-11T14:13:19.589Z,28.05
2022-12-11T14:15:48.217Z,25.85
2022-12-11T14:18:22.112Z,24.75
2022-12-11T14:21:27.260Z,29.58
2022-12-11T14:24:00.294Z,31.27
2022-12-11T14:26:35.730Z,35.85
2022-12-11T14:29:06.514Z,36.90
2022-12-11T14:31:48.591Z,32.03
2022-12-11T14:34:24.930Z,47.20
2022-12-11T14:36:56.941Z,45.78
2022-12-11T14:39:31.511Z,42.80
2022-12-11T14:42:07.331Z,34.47
2022-12-11T14:44:48.842Z,37.75
2022-12-11T14:47:29.291Z,35.35
2022-12-11T14:50:33.404Z,32.88
2022-12-11T14:53:18.104Z,25.48
2022-12-11T14:56:08.194Z,27.50
2022-12-11T14:58:42.094Z,27.27
2022-12-11T15:01:24.574Z,26.25
2022-12-11T15:04:15.934Z,25.48
2022-12-11T15:06:45.918Z,22.83
2022-12-11T15:09:26.442Z,24.85
2022-12-11T15:12:19.351Z,23.23
2022-12-11T15:15:14.500Z,27.55
2022-12-11T15:17:52.711Z,28.45
2022-12-11T15:20:37.904Z,29.50
2022-12-11T15:23:07.690Z,24.70
2022-12-11T15:26:00.032Z,24.48
2022-12-11T15:28:58.986Z,20.30
2022-12-11T15:31:36.716Z,23.05
2022-12-11T15:34:03.397Z,22.30
2022-12-11T15:36:54.892Z,22.50
2022-12-11T15:39:21.418Z,21.77
2022-12-11T15:42:25.752Z,23.73
2022-12-11T15:44:55.888Z,26.48
2022-12-11T15:47:39.699Z,25.00
2022-12-11T15:50:16.447Z,28.20
2022-12-11T15:52:43.346Z,30.13
2022-12-11T15:55:25.567Z,29.08
2022-12-11T15:58:15.527Z,35.35
2022-12-11T16:00:54.984Z,32.90
2022-12-11T16:03:32.677Z,32.47
2022-12-11T16:06:13.537Z,28.50
2022-12-11T16:08:41.043Z,28.15
2022-12-11T16:11:17.412Z,28.58
2022-12-11T16:13:45.822Z,32.42
2022-12-11T16:16:13.335Z,31.00
2022-12-11T16:18:46.700Z,29.52
2022-12-11T16:21:18.202Z,39.45
2022-12-11T16:23:47.650Z,33.92
2022-12-11T16:26:15.629Z,36.08
2022-12-11T16:28:44.090Z,27.30
2022-12-11T16:31:22.376Z,22.52
2022-12-11T16:33:50.877Z,23.67
2022-12-11T16:36:19.559Z,21.27
2022-12-11T16:39:00.538Z,24.77
2022-12-11T16:41:29.043Z,22.85
2022-12-11T16:44:12.088Z,22.35
2022-12-11T16:46:38.590Z,22.55
2022-12-11T16:49:05.214Z,22.15
2022-12-11T16:51:41.512Z,27.20
2022-12-11T16:54:14.068Z,26.80
2022-12-11T16:56:41.565Z,28.30
2022-12-11T16:59:29.949Z,28.42
2022-12-11T17:02:13.073Z,33.03
2022-12-11T17:05:01.614Z,33.50
2022-12-11T17:07:28.316Z,34.97
2022-12-11T17:10:00.555Z,28.70
2022-12-11T17:12:27.964Z,29.20
2022-12-11T17:14:55.339Z,35.97
2022-12-11T17:17:21.777Z,57.40
2022-12-11T17:19:48.221Z,76.53
2022-12-11T17:22:19.340Z,88.15
2022-12-11T17:24:46.909Z,55.00
2022-12-11T17:27:15.372Z,38.10
2022-12-11T17:30:13.385Z,109.53
2022-12-11T17:32:39.882Z,84.93
2022-12-11T17:35:11.692Z,43.50
2022-12-11T17:37:54.639Z,37.00
2022-12-11T17:40:22.549Z,27.58
2022-12-11T17:42:57.223Z,30.33
2022-12-11T17:45:23.612Z,37.80
2022-12-11T17:47:57.380Z,40.50
2022-12-11T17:50:32.818Z,32.67
2022-12-11T17:53:00.270Z,31.13
2022-12-11T17:55:42.699Z,35.67
2022-12-11T17:58:19.613Z,32.58
2022-12-11T18:00:47.585Z,31.75
2022-12-11T18:03:19.453Z,29.33
2022-12-11T18:05:51.496Z,33.95
2022-12-11T18:08:26.295Z,29.45
2022-12-11T18:10:53.854Z,27.17
2022-12-11T18:13:21.228Z,28.90
2022-12-11T18:15:48.483Z,29.15
2022-12-11T18:18:15.303Z,28.40
2022-12-11T18:20:41.819Z,32.40
2022-12-11T18:23:08.332Z,32.85
2022-12-11T18:25:34.783Z,28.73
2022-12-11T18:28:01.315Z,30.35
2022-12-11T18:30:28.821Z,29.90
2022-12-11T18:32:55.351Z,28.35
2022-12-11T18:35:21.833Z,31.15
2022-12-11T18:37:48.338Z,24.98
2022-12-11T18:40:14.769Z,30.13
2022-12-11T18:42:41.252Z,31.65
2022-12-11T18:45:08.320Z,24.65
2022-12-11T18:47:35.435Z,25.27
2022-12-11T18:50:07.412Z,26.58
2022-12-11T18:52:34.747Z,24.63
2022-12-11T18:55:05.813Z,26.33
2022-12-11T18:57:58.212Z,24.15
2022-12-11T19:00:24.948Z,24.77
2022-12-11T19:02:52.552Z,25.17
2022-12-11T19:05:19.059Z,28.45
2022-12-11T19:08:12.252Z,28.60
2022-12-11T19:10:47.395Z,30.10
2022-12-11T19:13:14.552Z,29.33
2022-12-11T19:15:43.629Z,31.67
2022-12-11T19:18:10.930Z,29.92
2022-12-11T19:21:04.643Z,35.40
2022-12-11T19:23:25.683Z,34.42
2022-12-11T19:25:52.153Z,32.80
2022-12-11T19:28:18.871Z,33.05
2022-12-11T19:30:49.757Z,35.58
2022-12-11T19:33:29.717Z,38.92
2022-12-11T19:36:30.934Z,35.03
2022-12-11T19:39:09.780Z,34.53
2022-12-11T19:41:39.371Z,35.20
2022-12-11T19:44:27.449Z,34.17
2022-12-11T19:46:54.043Z,33.75
2022-12-11T19:49:21.773Z,30.10
2022-12-11T19:51:48.277Z,28.77
2022-12-11T19:54:41.731Z,30.05
2022-12-11T19:57:19.302Z,31.42
2022-12-11T19:59:45.737Z,26.80
2022-12-11T20:02:14.338Z,27.67
2022-12-11T20:04:42.006Z,26.23
2022-12-11T20:07:30.799Z,31.77
2022-12-11T20:09:57.493Z,26.05
2022-12-11T20:12:30.185Z,26.55
2022-12-11T20:14:58.697Z,28.08
2022-12-11T20:17:33.470Z,31.25
2022-12-11T20:20:00.316Z,31.00
2022-12-11T20:22:35.008Z,31.15
2022-12-11T20:25:01.447Z,32.43
2022-12-11T20:27:28.425Z,30.27
2022-12-11T20:30:02.661Z,32.53
2022-12-11T20:32:29.092Z,27.13
2022-12-11T20:34:58.895Z,30.70
2022-12-11T20:37:25.970Z,29.92
2022-12-11T20:39:52.410Z,29.13
2022-12-11T20:42:18.819Z,33.38
2022-12-11T20:44:48.922Z,38.67
2022-12-11T20:47:16.015Z,36.80
2022-12-11T20:49:42.452Z,34.72
2022-12-11T20:52:08.886Z,33.20
2022-12-11T20:54:35.301Z,34.05
2022-12-11T20:57:01.751Z,39.75
2022-12-11T20:59:29.258Z,33.72
2022-12-11T21:01:56.088Z,30.23
2022-12-11T21:04:23.304Z,29.88
2022-12-11T21:06:55.459Z,30.75
2022-12-11T21:09:24.855Z,29.67
2022-12-11T21:11:51.689Z,26.75
2022-12-11T21:14:19.174Z,27.63
2022-12-11T21:16:46.256Z,24.88
2022-12-11T21:19:17.132Z,26.45
2022-12-11T21:22:06.678Z,27.88
2022-12-11T21:24:33.170Z,27.48
2022-12-11T21:27:01.756Z,30.17
2022-12-11T21:29:29.416Z,25.10
2022-12-11T21:31:56.450Z,24.80
2022-12-11T21:34:25.494Z,20.10
2022-12-11T21:36:56.745Z,18.70
2022-12-11T21:39:24.820Z,14.80
2022-12-11T21:41:51.399Z,17.90
2022-12-11T21:47:04.350Z,25.35
2022-12-11T21:49:30.807Z,18.23
2022-12-11T21:52:01.317Z,72.45
2022-12-11T21:54:35.176Z,23.70
2022-12-11T21:57:05.018Z,23.73
2022-12-11T21:59:37.439Z,18.02
2022-12-11T22:02:13.155Z,18.65
2022-12-11T22:04:39.691Z,18.65
2022-12-11T22:07:07.357Z,17.67
2022-12-11T22:09:33.810Z,23.77
2022-12-11T22:12:24.045Z,19.42
2022-12-11T22:15:01.450Z,29.02
2022-12-11T22:17:27.900Z,28.75
2022-12-11T22:19:58.278Z,22.48
2022-12-11T22:22:24.819Z,26.58
2022-12-11T22:24:51.220Z,27.83
2022-12-11T22:27:23.275Z,26.05
2022-12-11T22:29:50.266Z,23.10
2022-12-11T22:32:16.684Z,23.90
2022-12-11T22:34:43.082Z,23.65
2022-12-11T22:37:13.583Z,22.88
2022-12-11T22:39:40.986Z,17.90
2022-12-11T22:42:07.462Z,20.35
2022-12-11T22:44:33.894Z,19.95
2022-12-11T22:47:00.293Z,19.23
2022-12-11T22:49:26.692Z,23.63
2022-12-11T22:51:53.111Z,21.67
2022-12-11T22:54:19.520Z,17.65
2022-12-11T22:56:49.301Z,18.83
2022-12-11T22:59:15.816Z,17.02
2022-12-11T23:01:42.439Z,19.77
2022-12-11T23:04:08.894Z,22.08
2022-12-11T23:06:35.422Z,19.30
2022-12-11T23:09:02.228Z,20.10
2022-12-11T23:11:31.406Z,18.10
2022-12-11T23:14:29.921Z,17.20
2022-12-11T23:16:56.450Z,19.77
2022-12-11T23:19:25.593Z,14.38
2022-12-11T23:21:52.875Z,18.60
2022-12-11T23:24:19.334Z,17.88
2022-12-11T23:26:45.760Z,12.38
2022-12-11T23:29:12.170Z,13.48
2022-12-11T23:31:38.592Z,12.10
2022-12-11T23:34:05.140Z,11.68
2022-12-11T23:36:31.585Z,14.43
2022-12-11T23:39:31.184Z,11.95
2022-12-11T23:41:57.862Z,13.60
2022-12-11T23:44:24.458Z,12.85
2022-12-11T23:46:52.865Z,14.38
2022-12-11T23:49:19.262Z,13.80
2022-12-11T23:51:45.806Z,13.02
2022-12-11T23:54:12.464Z,13.82
2022-12-11T23:56:39.083Z,13.85
2022-12-11T23:59:05.506Z,16.77
